sensor_id;sensor_type;location;lat;lon;timestamp;temperature;humidity
19781;DHT22;10050;55.492;13.506;2023-05-10T00:01:23;10.80;99.90
19781;DHT22;10050;55.492;13.506;2023-05-10T00:03:49;10.80;99.90
19781;DHT22;10050;55.492;13.506;2023-05-10T00:06:14;10.80;99.90
19781;DHT22;10050;55.492;13.506;2023-05-10T00:08:40;10.80;99.90
19781;DHT22;10050;55.492;13.506;2023-05-10T00:11:06;10.80;99.90
19781;DHT22;10050;55.492;13.506;2023-05-10T00:13:32;10.80;99.90
19781;DHT22;10050;55.492;13.506;2023-05-10T00:15:57;10.80;99.90
19781;DHT22;10050;55.492;13.506;2023-05-10T00:18:23;10.70;99.90
19781;DHT22;10050;55.492;13.506;2023-05-10T00:20:49;10.70;99.90
19781;DHT22;10050;55.492;13.506;2023-05-10T00:23:14;10.70;99.90
19781;DHT22;10050;55.492;13.506;2023-05-10T00:25:40;10.70;99.90
19781;DHT22;10050;55.492;13.506;2023-05-10T00:28:06;10.70;99.90
19781;DHT22;10050;55.492;13.506;2023-05-10T00:30:31;10.70;99.90
19781;DHT22;10050;55.492;13.506;2023-05-10T00:32:57;10.60;99.90
19781;DHT22;10050;55.492;13.506;2023-05-10T00:35:23;10.60;99.90
19781;DHT22;10050;55.492;13.506;2023-05-10T00:37:48;10.60;99.90
19781;DHT22;10050;55.492;13.506;2023-05-10T00:40:14;10.60;99.90
19781;DHT22;10050;55.492;13.506;2023-05-10T00:42:40;10.60;99.90
19781;DHT22;10050;55.492;13.506;2023-05-10T00:45:06;10.50;99.90
19781;DHT22;10050;55.492;13.506;2023-05-10T00:47:32;10.50;99.90
19781;DHT22;10050;55.492;13.506;2023-05-10T00:49:59;10.40;99.90
19781;DHT22;10050;55.492;13.506;2023-05-10T00:52:29;10.40;99.90
19781;DHT22;10050;55.492;13.506;2023-05-10T00:54:55;10.30;99.90
19781;DHT22;10050;55.492;13.506;2023-05-10T00:57:21;10.30;99.90
19781;DHT22;10050;55.492;13.506;2023-05-10T00:59:47;10.30;99.90
19781;DHT22;10050;55.492;13.506;2023-05-10T01:02:13;10.30;99.90
19781;DHT22;10050;55.492;13.506;2023-05-10T01:04:39;10.30;99.90
19781;DHT22;10050;55.492;13.506;2023-05-10T01:07:05;10.30;99.90
19781;DHT22;10050;55.492;13.506;2023-05-10T01:09:32;10.30;99.90
19781;DHT22;10050;55.492;13.506;2023-05-10T01:11:58;10.20;99.90
19781;DHT22;10050;55.492;13.506;2023-05-10T01:14:25;10.20;99.90
19781;DHT22;10050;55.492;13.506;2023-05-10T01:16:52;10.20;99.90
19781;DHT22;10050;55.492;13.506;2023-05-10T01:19:25;10.20;99.90
19781;DHT22;10050;55.492;13.506;2023-05-10T01:35:46;10.10;99.90
19781;DHT22;10050;55.492;13.506;2023-05-10T01:38:29;10.10;99.90
19781;DHT22;10050;55.492;13.506;2023-05-10T01:43:52;10.10;99.90
19781;DHT22;10050;55.492;13.506;2023-05-10T01:46:26;10.10;99.90
19781;DHT22;10050;55.492;13.506;2023-05-10T01:48:55;10.00;99.90
19781;DHT22;10050;55.492;13.506;2023-05-10T01:51:27;10.00;99.90
19781;DHT22;10050;55.492;13.506;2023-05-10T01:53:59;10.10;99.90
19781;DHT22;10050;55.492;13.506;2023-05-10T01:56:28;10.00;99.90
19781;DHT22;10050;55.492;13.506;2023-05-10T01:58:55;10.00;99.90
19781;DHT22;10050;55.492;13.506;2023-05-10T02:01:22;10.00;99.90
19781;DHT22;10050;55.492;13.506;2023-05-10T02:03:50;9.90;99.90
19781;DHT22;10050;55.492;13.506;2023-05-10T02:06:18;9.90;99.90
19781;DHT22;10050;55.492;13.506;2023-05-10T02:08:46;9.80;99.90
19781;DHT22;10050;55.492;13.506;2023-05-10T02:11:13;9.80;99.90
19781;DHT22;10050;55.492;13.506;2023-05-10T02:13:39;9.80;99.90
19781;DHT22;10050;55.492;13.506;2023-05-10T02:16:07;9.80;99.90
19781;DHT22;10050;55.492;13.506;2023-05-10T02:18:34;9.70;99.90
19781;DHT22;10050;55.492;13.506;2023-05-10T02:21:02;9.80;99.90
19781;DHT22;10050;55.492;13.506;2023-05-10T02:23:29;9.80;99.90
19781;DHT22;10050;55.492;13.506;2023-05-10T02:25:56;9.90;99.90
19781;DHT22;10050;55.492;13.506;2023-05-10T02:28:23;9.90;99.90
19781;DHT22;10050;55.492;13.506;2023-05-10T02:30:51;9.90;99.90
19781;DHT22;10050;55.492;13.506;2023-05-10T02:33:18;9.90;99.90
19781;DHT22;10050;55.492;13.506;2023-05-10T02:35:45;9.90;99.90
19781;DHT22;10050;55.492;13.506;2023-05-10T02:38:13;9.80;99.90
19781;DHT22;10050;55.492;13.506;2023-05-10T02:40:41;9.80;99.90
19781;DHT22;10050;55.492;13.506;2023-05-10T02:43:11;9.80;99.90
19781;DHT22;10050;55.492;13.506;2023-05-10T02:45:38;9.80;99.90
19781;DHT22;10050;55.492;13.506;2023-05-10T02:48:05;9.80;99.90
19781;DHT22;10050;55.492;13.506;2023-05-10T02:50:32;9.90;99.90
19781;DHT22;10050;55.492;13.506;2023-05-10T02:53:06;9.90;99.90
19781;DHT22;10050;55.492;13.506;2023-05-10T02:55:40;9.90;99.90
19781;DHT22;10050;55.492;13.506;2023-05-10T02:58:07;9.90;99.90
19781;DHT22;10050;55.492;13.506;2023-05-10T03:00:33;9.80;99.90
19781;DHT22;10050;55.492;13.506;2023-05-10T03:02:59;9.80;99.90
19781;DHT22;10050;55.492;13.506;2023-05-10T03:05:24;9.70;99.90
19781;DHT22;10050;55.492;13.506;2023-05-10T03:07:51;9.70;99.90
19781;DHT22;10050;55.492;13.506;2023-05-10T03:10:18;9.80;99.90
19781;DHT22;10050;55.492;13.506;2023-05-10T03:12:51;9.80;99.90
19781;DHT22;10050;55.492;13.506;2023-05-10T03:15:37;9.80;99.90
19781;DHT22;10050;55.492;13.506;2023-05-10T03:18:33;9.80;99.90
19781;DHT22;10050;55.492;13.506;2023-05-10T03:21:03;9.80;99.90
19781;DHT22;10050;55.492;13.506;2023-05-10T03:23:51;9.80;99.90
19781;DHT22;10050;55.492;13.506;2023-05-10T03:26:24;9.80;99.90
19781;DHT22;10050;55.492;13.506;2023-05-10T03:28:52;9.70;99.90
19781;DHT22;10050;55.492;13.506;2023-05-10T03:31:18;9.70;99.90
19781;DHT22;10050;55.492;13.506;2023-05-10T03:33:52;9.70;99.90
19781;DHT22;10050;55.492;13.506;2023-05-10T03:36:19;9.70;99.90
19781;DHT22;10050;55.492;13.506;2023-05-10T03:38:44;9.70;99.90
19781;DHT22;10050;55.492;13.506;2023-05-10T03:41:10;9.70;99.90
19781;DHT22;10050;55.492;13.506;2023-05-10T03:43:36;9.80;99.90
19781;DHT22;10050;55.492;13.506;2023-05-10T03:46:05;9.80;99.90
19781;DHT22;10050;55.492;13.506;2023-05-10T03:48:34;9.70;99.90
19781;DHT22;10050;55.492;13.506;2023-05-10T03:51:00;9.80;99.90
19781;DHT22;10050;55.492;13.506;2023-05-10T03:53:26;9.70;99.90
19781;DHT22;10050;55.492;13.506;2023-05-10T03:55:52;9.70;99.90
19781;DHT22;10050;55.492;13.506;2023-05-10T03:58:17;9.70;99.90
19781;DHT22;10050;55.492;13.506;2023-05-10T04:00:43;9.70;99.90
19781;DHT22;10050;55.492;13.506;2023-05-10T04:03:11;9.70;99.90
19781;DHT22;10050;55.492;13.506;2023-05-10T04:05:37;9.80;99.90
19781;DHT22;10050;55.492;13.506;2023-05-10T04:08:04;9.80;99.90
19781;DHT22;10050;55.492;13.506;2023-05-10T04:10:29;9.80;99.90
19781;DHT22;10050;55.492;13.506;2023-05-10T04:12:55;9.80;99.90
19781;DHT22;10050;55.492;13.506;2023-05-10T04:15:21;9.90;99.90
19781;DHT22;10050;55.492;13.506;2023-05-10T04:17:46;9.90;99.90
19781;DHT22;10050;55.492;13.506;2023-05-10T04:20:12;9.90;99.90
19781;DHT22;10050;55.492;13.506;2023-05-10T04:22:38;9.90;99.90
19781;DHT22;10050;55.492;13.506;2023-05-10T04:25:04;10.00;99.90
19781;DHT22;10050;55.492;13.506;2023-05-10T04:27:30;10.00;99.90
19781;DHT22;10050;55.492;13.506;2023-05-10T04:29:56;10.00;99.90
19781;DHT22;10050;55.492;13.506;2023-05-10T04:32:22;10.10;99.90
19781;DHT22;10050;55.492;13.506;2023-05-10T04:34:48;10.10;99.90
19781;DHT22;10050;55.492;13.506;2023-05-10T04:37:13;10.10;99.90
19781;DHT22;10050;55.492;13.506;2023-05-10T04:39:39;10.20;99.90
19781;DHT22;10050;55.492;13.506;2023-05-10T04:42:05;10.20;99.90
19781;DHT22;10050;55.492;13.506;2023-05-10T04:44:31;10.20;99.90
19781;DHT22;10050;55.492;13.506;2023-05-10T04:46:57;10.30;99.90
19781;DHT22;10050;55.492;13.506;2023-05-10T04:49:23;10.30;99.90
19781;DHT22;10050;55.492;13.506;2023-05-10T04:51:49;10.40;99.90
19781;DHT22;10050;55.492;13.506;2023-05-10T04:54:14;10.40;99.90
19781;DHT22;10050;55.492;13.506;2023-05-10T04:56:40;10.50;99.90
19781;DHT22;10050;55.492;13.506;2023-05-10T04:59:06;10.50;99.90
19781;DHT22;10050;55.492;13.506;2023-05-10T05:01:32;10.60;99.90
19781;DHT22;10050;55.492;13.506;2023-05-10T05:03:58;10.60;99.90
19781;DHT22;10050;55.492;13.506;2023-05-10T05:06:24;10.70;99.90
19781;DHT22;10050;55.492;13.506;2023-05-10T05:08:50;10.80;99.90
19781;DHT22;10050;55.492;13.506;2023-05-10T05:11:17;10.90;99.90
19781;DHT22;10050;55.492;13.506;2023-05-10T05:13:43;10.90;99.90
19781;DHT22;10050;55.492;13.506;2023-05-10T05:16:09;11.00;99.90
19781;DHT22;10050;55.492;13.506;2023-05-10T05:18:35;11.10;99.90
19781;DHT22;10050;55.492;13.506;2023-05-10T05:21:01;11.10;99.90
19781;DHT22;10050;55.492;13.506;2023-05-10T05:23:26;11.20;99.90
19781;DHT22;10050;55.492;13.506;2023-05-10T05:25:52;11.20;99.90
19781;DHT22;10050;55.492;13.506;2023-05-10T05:28:19;11.20;99.90
19781;DHT22;10050;55.492;13.506;2023-05-10T05:30:45;11.30;99.90
19781;DHT22;10050;55.492;13.506;2023-05-10T05:33:12;11.40;99.90
19781;DHT22;10050;55.492;13.506;2023-05-10T05:35:38;11.50;99.90
19781;DHT22;10050;55.492;13.506;2023-05-10T05:38:04;11.60;99.90
19781;DHT22;10050;55.492;13.506;2023-05-10T05:40:29;11.60;99.90
19781;DHT22;10050;55.492;13.506;2023-05-10T05:42:55;11.70;99.90
19781;DHT22;10050;55.492;13.506;2023-05-10T05:45:21;11.80;99.90
19781;DHT22;10050;55.492;13.506;2023-05-10T05:47:46;11.80;99.90
19781;DHT22;10050;55.492;13.506;2023-05-10T05:50:12;11.90;99.90
19781;DHT22;10050;55.492;13.506;2023-05-10T05:52:38;11.90;99.90
19781;DHT22;10050;55.492;13.506;2023-05-10T05:55:04;12.00;99.90
19781;DHT22;10050;55.492;13.506;2023-05-10T05:57:30;12.10;99.90
19781;DHT22;10050;55.492;13.506;2023-05-10T05:59:55;12.10;99.90
19781;DHT22;10050;55.492;13.506;2023-05-10T06:02:21;12.20;99.90
19781;DHT22;10050;55.492;13.506;2023-05-10T06:04:47;12.30;99.90
19781;DHT22;10050;55.492;13.506;2023-05-10T06:07:12;12.30;99.90
19781;DHT22;10050;55.492;13.506;2023-05-10T06:09:38;12.50;99.90
19781;DHT22;10050;55.492;13.506;2023-05-10T06:12:04;12.60;99.90
19781;DHT22;10050;55.492;13.506;2023-05-10T06:14:30;12.60;99.90
19781;DHT22;10050;55.492;13.506;2023-05-10T06:16:56;12.70;99.90
19781;DHT22;10050;55.492;13.506;2023-05-10T06:19:21;12.70;99.90
19781;DHT22;10050;55.492;13.506;2023-05-10T06:21:47;12.70;99.90
19781;DHT22;10050;55.492;13.506;2023-05-10T06:24:12;12.70;99.90
19781;DHT22;10050;55.492;13.506;2023-05-10T06:26:38;12.70;99.90
19781;DHT22;10050;55.492;13.506;2023-05-10T06:29:04;12.80;99.90
19781;DHT22;10050;55.492;13.506;2023-05-10T06:31:29;12.90;99.90
19781;DHT22;10050;55.492;13.506;2023-05-10T06:33:55;12.90;99.90
19781;DHT22;10050;55.492;13.506;2023-05-10T06:36:21;13.10;99.90
19781;DHT22;10050;55.492;13.506;2023-05-10T06:38:47;13.20;99.90
19781;DHT22;10050;55.492;13.506;2023-05-10T06:41:13;13.50;99.90
19781;DHT22;10050;55.492;13.506;2023-05-10T06:43:38;13.50;99.90
19781;DHT22;10050;55.492;13.506;2023-05-10T06:46:06;13.50;99.90
19781;DHT22;10050;55.492;13.506;2023-05-10T06:48:32;13.50;99.90
19781;DHT22;10050;55.492;13.506;2023-05-10T06:50:58;13.60;99.90
19781;DHT22;10050;55.492;13.506;2023-05-10T06:53:24;13.70;99.90
19781;DHT22;10050;55.492;13.506;2023-05-10T06:55:49;13.90;99.90
19781;DHT22;10050;55.492;13.506;2023-05-10T06:58:15;14.00;99.90
19781;DHT22;10050;55.492;13.506;2023-05-10T07:00:41;14.00;99.90
19781;DHT22;10050;55.492;13.506;2023-05-10T07:03:09;14.10;99.90
19781;DHT22;10050;55.492;13.506;2023-05-10T07:05:35;14.00;99.90
19781;DHT22;10050;55.492;13.506;2023-05-10T07:08:01;14.30;99.90
19781;DHT22;10050;55.492;13.506;2023-05-10T07:10:27;14.60;99.90
19781;DHT22;10050;55.492;13.506;2023-05-10T07:12:52;14.70;99.90
19781;DHT22;10050;55.492;13.506;2023-05-10T07:15:18;14.60;99.90
19781;DHT22;10050;55.492;13.506;2023-05-10T07:17:44;14.50;99.90
19781;DHT22;10050;55.492;13.506;2023-05-10T07:20:09;14.80;99.90
19781;DHT22;10050;55.492;13.506;2023-05-10T07:22:35;15.00;99.90
19781;DHT22;10050;55.492;13.506;2023-05-10T07:25:01;15.20;99.90
19781;DHT22;10050;55.492;13.506;2023-05-10T07:27:27;15.40;99.90
19781;DHT22;10050;55.492;13.506;2023-05-10T07:29:53;15.50;99.90
19781;DHT22;10050;55.492;13.506;2023-05-10T07:32:20;15.50;99.90
19781;DHT22;10050;55.492;13.506;2023-05-10T07:34:46;15.40;99.90
19781;DHT22;10050;55.492;13.506;2023-05-10T07:37:11;15.40;99.90
19781;DHT22;10050;55.492;13.506;2023-05-10T07:39:37;15.40;99.90
19781;DHT22;10050;55.492;13.506;2023-05-10T07:42:03;15.60;99.90
19781;DHT22;10050;55.492;13.506;2023-05-10T07:44:28;16.00;99.90
19781;DHT22;10050;55.492;13.506;2023-05-10T07:46:54;16.00;99.90
19781;DHT22;10050;55.492;13.506;2023-05-10T07:49:21;15.80;99.90
19781;DHT22;10050;55.492;13.506;2023-05-10T07:51:46;15.60;99.90
19781;DHT22;10050;55.492;13.506;2023-05-10T07:54:13;15.80;99.90
19781;DHT22;10050;55.492;13.506;2023-05-10T07:56:39;15.90;99.90
19781;DHT22;10050;55.492;13.506;2023-05-10T07:59:10;16.00;99.90
19781;DHT22;10050;55.492;13.506;2023-05-10T08:01:35;16.30;99.90
19781;DHT22;10050;55.492;13.506;2023-05-10T08:04:01;16.20;99.90
19781;DHT22;10050;55.492;13.506;2023-05-10T08:06:27;15.90;99.90
19781;DHT22;10050;55.492;13.506;2023-05-10T08:08:55;16.00;99.90
19781;DHT22;10050;55.492;13.506;2023-05-10T08:11:21;15.80;99.90
19781;DHT22;10050;55.492;13.506;2023-05-10T08:13:48;15.90;99.90
19781;DHT22;10050;55.492;13.506;2023-05-10T08:16:15;16.10;99.90
19781;DHT22;10050;55.492;13.506;2023-05-10T08:18:41;16.40;99.90
19781;DHT22;10050;55.492;13.506;2023-05-10T08:21:06;16.20;99.90
19781;DHT22;10050;55.492;13.506;2023-05-10T08:23:32;16.20;99.90
19781;DHT22;10050;55.492;13.506;2023-05-10T08:25:58;16.30;99.90
19781;DHT22;10050;55.492;13.506;2023-05-10T08:28:24;16.40;99.90
19781;DHT22;10050;55.492;13.506;2023-05-10T08:30:50;16.40;99.90
19781;DHT22;10050;55.492;13.506;2023-05-10T08:33:17;16.60;99.90
19781;DHT22;10050;55.492;13.506;2023-05-10T08:35:43;16.80;99.90
19781;DHT22;10050;55.492;13.506;2023-05-10T08:38:09;16.90;99.90
19781;DHT22;10050;55.492;13.506;2023-05-10T08:40:36;16.80;99.90
19781;DHT22;10050;55.492;13.506;2023-05-10T08:43:08;16.50;99.90
19781;DHT22;10050;55.492;13.506;2023-05-10T08:45:40;17.10;99.90
19781;DHT22;10050;55.492;13.506;2023-05-10T08:48:07;17.20;99.90
19781;DHT22;10050;55.492;13.506;2023-05-10T08:50:36;17.10;99.90
19781;DHT22;10050;55.492;13.506;2023-05-10T08:53:04;16.90;99.90
19781;DHT22;10050;55.492;13.506;2023-05-10T08:55:30;17.20;99.90
19781;DHT22;10050;55.492;13.506;2023-05-10T08:57:58;17.20;99.90
19781;DHT22;10050;55.492;13.506;2023-05-10T09:00:24;17.00;99.90
19781;DHT22;10050;55.492;13.506;2023-05-10T09:02:50;16.90;99.90
19781;DHT22;10050;55.492;13.506;2023-05-10T09:05:16;17.00;99.90
19781;DHT22;10050;55.492;13.506;2023-05-10T09:07:43;16.90;99.90
19781;DHT22;10050;55.492;13.506;2023-05-10T09:10:10;17.00;99.90
19781;DHT22;10050;55.492;13.506;2023-05-10T09:12:36;16.90;99.90
19781;DHT22;10050;55.492;13.506;2023-05-10T09:15:02;16.80;99.90
19781;DHT22;10050;55.492;13.506;2023-05-10T09:17:29;16.60;99.90
19781;DHT22;10050;55.492;13.506;2023-05-10T09:20:03;16.90;99.90
19781;DHT22;10050;55.492;13.506;2023-05-10T09:22:30;16.70;99.90
19781;DHT22;10050;55.492;13.506;2023-05-10T09:25:09;16.70;99.90
19781;DHT22;10050;55.492;13.506;2023-05-10T09:27:37;16.80;99.90
19781;DHT22;10050;55.492;13.506;2023-05-10T09:30:04;16.80;99.90
19781;DHT22;10050;55.492;13.506;2023-05-10T09:32:42;16.60;99.90
19781;DHT22;10050;55.492;13.506;2023-05-10T09:35:12;16.70;99.90
19781;DHT22;10050;55.492;13.506;2023-05-10T09:37:44;16.60;99.90
19781;DHT22;10050;55.492;13.506;2023-05-10T09:40:18;16.60;99.90
19781;DHT22;10050;55.492;13.506;2023-05-10T09:43:04;16.90;99.90
19781;DHT22;10050;55.492;13.506;2023-05-10T09:45:33;17.00;99.90
19781;DHT22;10050;55.492;13.506;2023-05-10T09:48:00;16.90;99.90
19781;DHT22;10050;55.492;13.506;2023-05-10T09:50:28;17.30;99.90
19781;DHT22;10050;55.492;13.506;2023-05-10T09:52:58;17.20;99.90
19781;DHT22;10050;55.492;13.506;2023-05-10T09:55:27;17.20;99.90
19781;DHT22;10050;55.492;13.506;2023-05-10T09:58:03;17.20;99.90
19781;DHT22;10050;55.492;13.506;2023-05-10T10:00:38;17.30;99.90
19781;DHT22;10050;55.492;13.506;2023-05-10T10:03:04;17.60;99.90
19781;DHT22;10050;55.492;13.506;2023-05-10T10:05:35;17.70;99.90
19781;DHT22;10050;55.492;13.506;2023-05-10T10:08:03;17.70;99.90
19781;DHT22;10050;55.492;13.506;2023-05-10T10:10:31;17.60;99.90
19781;DHT22;10050;55.492;13.506;2023-05-10T10:12:57;17.40;99.90
19781;DHT22;10050;55.492;13.506;2023-05-10T10:15:24;17.40;99.90
19781;DHT22;10050;55.492;13.506;2023-05-10T10:17:51;17.70;99.90
19781;DHT22;10050;55.492;13.506;2023-05-10T10:20:19;17.80;99.90
19781;DHT22;10050;55.492;13.506;2023-05-10T10:22:45;17.80;99.90
19781;DHT22;10050;55.492;13.506;2023-05-10T10:25:12;18.00;99.90
19781;DHT22;10050;55.492;13.506;2023-05-10T10:30:16;18.10;99.90
19781;DHT22;10050;55.492;13.506;2023-05-10T10:35:45;18.30;99.90
19781;DHT22;10050;55.492;13.506;2023-05-10T10:38:12;18.20;99.90
19781;DHT22;10050;55.492;13.506;2023-05-10T10:40:38;18.30;99.90
19781;DHT22;10050;55.492;13.506;2023-05-10T10:46:25;18.50;99.90
19781;DHT22;10050;55.492;13.506;2023-05-10T10:49:08;18.30;99.90
19781;DHT22;10050;55.492;13.506;2023-05-10T10:51:38;18.30;99.90
19781;DHT22;10050;55.492;13.506;2023-05-10T10:54:10;18.00;99.90
19781;DHT22;10050;55.492;13.506;2023-05-10T10:56:36;18.00;99.90
19781;DHT22;10050;55.492;13.506;2023-05-10T10:59:02;18.10;99.90
19781;DHT22;10050;55.492;13.506;2023-05-10T11:01:33;18.10;99.90
19781;DHT22;10050;55.492;13.506;2023-05-10T11:06:35;18.20;99.90
19781;DHT22;10050;55.492;13.506;2023-05-10T11:09:07;18.20;99.90
19781;DHT22;10050;55.492;13.506;2023-05-10T11:11:35;18.00;99.90
19781;DHT22;10050;55.492;13.506;2023-05-10T11:14:05;17.90;99.90
19781;DHT22;10050;55.492;13.506;2023-05-10T11:16:44;18.20;99.90
19781;DHT22;10050;55.492;13.506;2023-05-10T11:19:14;18.40;99.90
19781;DHT22;10050;55.492;13.506;2023-05-10T11:24:31;18.00;99.90
19781;DHT22;10050;55.492;13.506;2023-05-10T11:26:57;18.00;99.90
19781;DHT22;10050;55.492;13.506;2023-05-10T11:29:22;18.00;99.90
19781;DHT22;10050;55.492;13.506;2023-05-10T11:31:49;18.00;99.90
19781;DHT22;10050;55.492;13.506;2023-05-10T11:34:28;18.20;99.90
19781;DHT22;10050;55.492;13.506;2023-05-10T11:37:00;18.10;99.90
19781;DHT22;10050;55.492;13.506;2023-05-10T11:39:28;18.10;99.90
19781;DHT22;10050;55.492;13.506;2023-05-10T11:41:54;17.90;99.90
19781;DHT22;10050;55.492;13.506;2023-05-10T11:44:20;18.20;99.90
19781;DHT22;10050;55.492;13.506;2023-05-10T11:46:46;18.20;99.90
19781;DHT22;10050;55.492;13.506;2023-05-10T11:49:11;18.40;99.90
19781;DHT22;10050;55.492;13.506;2023-05-10T11:51:39;18.60;99.90
19781;DHT22;10050;55.492;13.506;2023-05-10T11:54:10;18.50;99.90
19781;DHT22;10050;55.492;13.506;2023-05-10T11:56:38;18.50;99.90
19781;DHT22;10050;55.492;13.506;2023-05-10T11:59:04;18.70;99.90
19781;DHT22;10050;55.492;13.506;2023-05-10T12:01:30;18.60;99.90
19781;DHT22;10050;55.492;13.506;2023-05-10T12:03:57;18.50;99.90
19781;DHT22;10050;55.492;13.506;2023-05-10T12:06:27;18.60;99.90
19781;DHT22;10050;55.492;13.506;2023-05-10T12:08:54;18.70;99.90
19781;DHT22;10050;55.492;13.506;2023-05-10T12:11:20;18.60;99.90
19781;DHT22;10050;55.492;13.506;2023-05-10T12:13:49;18.50;99.90
19781;DHT22;10050;55.492;13.506;2023-05-10T12:16:26;18.50;99.90
19781;DHT22;10050;55.492;13.506;2023-05-10T12:18:56;18.50;99.90
19781;DHT22;10050;55.492;13.506;2023-05-10T12:21:22;18.50;99.90
19781;DHT22;10050;55.492;13.506;2023-05-10T12:23:51;18.60;99.90
19781;DHT22;10050;55.492;13.506;2023-05-10T12:26:17;18.70;99.90
19781;DHT22;10050;55.492;13.506;2023-05-10T12:28:42;18.70;99.90
19781;DHT22;10050;55.492;13.506;2023-05-10T12:31:08;18.70;99.90
19781;DHT22;10050;55.492;13.506;2023-05-10T12:33:42;18.90;99.90
19781;DHT22;10050;55.492;13.506;2023-05-10T12:36:12;18.70;99.90
19781;DHT22;10050;55.492;13.506;2023-05-10T12:41:11;19.10;99.90
19781;DHT22;10050;55.492;13.506;2023-05-10T12:43:37;19.40;99.90
19781;DHT22;10050;55.492;13.506;2023-05-10T12:48:37;19.10;99.90
19781;DHT22;10050;55.492;13.506;2023-05-10T12:51:04;19.10;99.90
19781;DHT22;10050;55.492;13.506;2023-05-10T12:53:30;19.30;99.90
19781;DHT22;10050;55.492;13.506;2023-05-10T12:55:55;19.30;99.90
19781;DHT22;10050;55.492;13.506;2023-05-10T12:58:21;19.10;99.90
19781;DHT22;10050;55.492;13.506;2023-05-10T13:00:47;19.10;99.90
19781;DHT22;10050;55.492;13.506;2023-05-10T13:03:12;19.20;99.90
19781;DHT22;10050;55.492;13.506;2023-05-10T13:05:38;19.20;99.90
19781;DHT22;10050;55.492;13.506;2023-05-10T13:08:04;19.30;99.90
19781;DHT22;10050;55.492;13.506;2023-05-10T13:10:31;19.30;99.90
19781;DHT22;10050;55.492;13.506;2023-05-10T13:12:58;19.30;99.90
19781;DHT22;10050;55.492;13.506;2023-05-10T13:15:24;19.30;99.90
19781;DHT22;10050;55.492;13.506;2023-05-10T13:17:50;19.50;99.90
19781;DHT22;10050;55.492;13.506;2023-05-10T13:20:16;19.60;99.90
19781;DHT22;10050;55.492;13.506;2023-05-10T13:22:42;19.60;99.90
19781;DHT22;10050;55.492;13.506;2023-05-10T13:25:08;19.60;99.90
19781;DHT22;10050;55.492;13.506;2023-05-10T13:27:34;19.60;99.90
19781;DHT22;10050;55.492;13.506;2023-05-10T13:30:00;19.60;99.90
19781;DHT22;10050;55.492;13.506;2023-05-10T13:32:26;19.70;99.90
19781;DHT22;10050;55.492;13.506;2023-05-10T13:34:52;19.60;99.90
19781;DHT22;10050;55.492;13.506;2023-05-10T13:37:18;19.40;99.90
19781;DHT22;10050;55.492;13.506;2023-05-10T13:39:43;19.40;99.90
19781;DHT22;10050;55.492;13.506;2023-05-10T13:42:09;19.60;99.90
19781;DHT22;10050;55.492;13.506;2023-05-10T13:44:35;19.50;99.90
19781;DHT22;10050;55.492;13.506;2023-05-10T13:47:01;19.50;99.90
19781;DHT22;10050;55.492;13.506;2023-05-10T13:49:27;19.50;99.90
19781;DHT22;10050;55.492;13.506;2023-05-10T13:51:52;19.50;99.90
19781;DHT22;10050;55.492;13.506;2023-05-10T13:54:18;19.40;99.80
19781;DHT22;10050;55.492;13.506;2023-05-10T13:56:45;19.40;99.50
19781;DHT22;10050;55.492;13.506;2023-05-10T13:59:13;19.40;99.90
19781;DHT22;10050;55.492;13.506;2023-05-10T14:01:42;19.50;99.90
19781;DHT22;10050;55.492;13.506;2023-05-10T14:04:11;19.40;99.80
19781;DHT22;10050;55.492;13.506;2023-05-10T14:06:37;19.60;99.90
19781;DHT22;10050;55.492;13.506;2023-05-10T14:09:03;19.50;99.90
19781;DHT22;10050;55.492;13.506;2023-05-10T14:11:29;19.60;99.90
19781;DHT22;10050;55.492;13.506;2023-05-10T14:13:54;19.60;99.80
19781;DHT22;10050;55.492;13.506;2023-05-10T14:16:20;19.40;99.90
19781;DHT22;10050;55.492;13.506;2023-05-10T14:18:46;19.40;99.90
19781;DHT22;10050;55.492;13.506;2023-05-10T14:21:12;19.40;99.50
19781;DHT22;10050;55.492;13.506;2023-05-10T14:23:38;19.40;99.90
19781;DHT22;10050;55.492;13.506;2023-05-10T14:26:04;19.40;99.70
19781;DHT22;10050;55.492;13.506;2023-05-10T14:28:30;19.40;99.90
19781;DHT22;10050;55.492;13.506;2023-05-10T14:30:56;19.40;99.40
19781;DHT22;10050;55.492;13.506;2023-05-10T14:33:21;19.40;99.90
19781;DHT22;10050;55.492;13.506;2023-05-10T14:35:47;19.50;99.90
19781;DHT22;10050;55.492;13.506;2023-05-10T14:38:14;19.50;99.90
19781;DHT22;10050;55.492;13.506;2023-05-10T14:40:39;19.60;99.90
19781;DHT22;10050;55.492;13.506;2023-05-10T14:43:05;19.50;99.90
19781;DHT22;10050;55.492;13.506;2023-05-10T14:45:31;19.40;99.90
19781;DHT22;10050;55.492;13.506;2023-05-10T14:47:57;19.40;99.90
19781;DHT22;10050;55.492;13.506;2023-05-10T14:50:23;19.60;99.90
19781;DHT22;10050;55.492;13.506;2023-05-10T14:52:49;19.40;99.90
19781;DHT22;10050;55.492;13.506;2023-05-10T14:55:15;19.40;99.90
19781;DHT22;10050;55.492;13.506;2023-05-10T14:57:40;19.40;99.90
19781;DHT22;10050;55.492;13.506;2023-05-10T15:00:07;19.40;99.90
19781;DHT22;10050;55.492;13.506;2023-05-10T15:02:33;19.50;99.90
19781;DHT22;10050;55.492;13.506;2023-05-10T15:04:59;19.30;99.90
19781;DHT22;10050;55.492;13.506;2023-05-10T15:07:27;19.30;99.90
19781;DHT22;10050;55.492;13.506;2023-05-10T15:10:03;19.40;99.90
19781;DHT22;10050;55.492;13.506;2023-05-10T15:12:29;19.40;99.90
19781;DHT22;10050;55.492;13.506;2023-05-10T15:14:55;19.40;99.90
19781;DHT22;10050;55.492;13.506;2023-05-10T15:17:20;19.30;99.90
19781;DHT22;10050;55.492;13.506;2023-05-10T15:19:46;19.30;99.90
19781;DHT22;10050;55.492;13.506;2023-05-10T15:22:14;19.20;99.90
19781;DHT22;10050;55.492;13.506;2023-05-10T15:24:40;19.20;99.90
19781;DHT22;10050;55.492;13.506;2023-05-10T15:27:09;19.30;99.90
19781;DHT22;10050;55.492;13.506;2023-05-10T15:29:35;19.30;99.90
19781;DHT22;10050;55.492;13.506;2023-05-10T15:32:01;19.40;99.90
19781;DHT22;10050;55.492;13.506;2023-05-10T15:34:28;19.30;99.90
19781;DHT22;10050;55.492;13.506;2023-05-10T15:36:54;19.10;99.90
19781;DHT22;10050;55.492;13.506;2023-05-10T15:39:19;19.00;99.90
19781;DHT22;10050;55.492;13.506;2023-05-10T15:41:45;19.00;99.90
19781;DHT22;10050;55.492;13.506;2023-05-10T15:44:11;18.90;99.90
19781;DHT22;10050;55.492;13.506;2023-05-10T15:46:37;18.80;99.90
19781;DHT22;10050;55.492;13.506;2023-05-10T15:49:03;18.80;99.90
19781;DHT22;10050;55.492;13.506;2023-05-10T15:51:29;18.80;99.90
19781;DHT22;10050;55.492;13.506;2023-05-10T15:53:54;18.80;99.90